Terminal Aerodrome Forecast
Issued by NWS

Home | Current Version | Previous Version | Text Only | Print | Product List | Glossary On
Versions: 1 2 3 4 5 6 7 8 9 10 11 12
000
FTUS42 KMLB 282336
TAFTIX
TAF
KTIX 282336Z 2900/2924 VRB04KT P6SM VCSH SCT035 SCT100 BKN250
     FM290300 24004KT P6SM SCT040 SCT120
     FM291400 23006KT P6SM SCT030
     FM291800 23005KT P6SM VCTS SCT040CB SCT060
      AMD NOT SKED 2901/2911=

USA.gov is the U.S. government's official web portal to all federal, state and local government web resources and services.